PWSweather.com
Personal Weather Stations
Station Observations
WISCHPK61
Green Bay Schmitt Park, Green Bay, WI 54311

Green Bay Schmitt ParkGreen Bay, WI 54311

Lat: 44.514277, Lon: -87.935067

Elevation: 735

Station Type: Acu Rite Pro Weather Center model 02032C

http://greenbayweathercam.com

High Low Average
Temperature 21.6°F-5.8°C 15.3°F-9.3°C 17.9°F-7.8°C
Dew Point 20.6°F-6.3°C 10.3°F-12.1°C 16.5°F-8.6°C
Winds 1.2 mph 1.9 kmh Calm Calm Calm WNWCalm WNW
Wind Gusts 5.8 mph9.3 kmh -- 1.0 mph1.6 kmh
Humidity 99% 62% 95%
Pressure 29.62 in1003.0 mb 29.28 in991.5 mb -
Precipitation 0.00 in0.0 mm - -
Hour Temp Dew Point Humidity Winds Wind Gusts Pressure Precip Precip Rate Daily Precip Total
12:00 AM 21.2°F-6.0°C 21.0°F-6.1°C 99% Calm Calm 1.2 mph1.9 kmh 29.25 in990.5 mb - 0.00 in0.0 mm 0.01 in0.3 mm
01:00 AM 20.3°F-6.5°C 20.1°F-6.6°C 99% Calm Calm 2.3 mph3.7 kmh 29.28 in991.5 mb - 0.00 in0.0 mm 0.00 in0.0 mm
02:00 AM 19.4°F-7.0°C 19.2°F-7.1°C 99% Calm Calm -- 29.30 in992.2 mb - 0.00 in0.0 mm 0.00 in0.0 mm
03:00 AM 18.7°F-7.4°C 18.5°F-7.5°C 99% 1.2 mph NW1.9 kmh NW -- 29.32 in992.9 mb - 0.00 in0.0 mm 0.00 in0.0 mm
04:00 AM 17.8°F-7.9°C 17.6°F-8.0°C 99% Calm Calm -- 29.35 in993.9 mb - 0.00 in0.0 mm 0.00 in0.0 mm
05:00 AM 17.1°F-8.3°C 16.9°F-8.4°C 99% Calm Calm -- 29.36 in994.2 mb - 0.00 in0.0 mm 0.00 in0.0 mm
06:00 AM 16.7°F-8.5°C 16.5°F-8.6°C 99% Calm Calm -- 29.38 in994.9 mb - 0.00 in0.0 mm 0.00 in0.0 mm
07:00 AM 16.2°F-8.8°C 16.0°F-8.9°C 99% Calm Calm 5.8 mph9.3 kmh 29.40 in995.6 mb - 0.00 in0.0 mm 0.00 in0.0 mm
08:00 AM 15.8°F-9.0°C 15.6°F-9.1°C 99% Calm Calm -- 29.42 in996.3 mb - 0.00 in0.0 mm 0.00 in0.0 mm
09:00 AM 15.3°F-9.3°C 15.1°F-9.4°C 99% Calm Calm -- 29.45 in997.3 mb - 0.00 in0.0 mm 0.00 in0.0 mm
10:00 AM 15.8°F-9.0°C 15.6°F-9.1°C 99% Calm Calm -- 29.48 in998.3 mb - 0.00 in0.0 mm 0.00 in0.0 mm
11:00 AM 16.9°F-8.4°C 16.7°F-8.5°C 99% 1.2 mph NW1.9 kmh NW 5.8 mph9.3 kmh 29.50 in999.0 mb - 0.00 in0.0 mm 0.00 in0.0 mm
12:00 PM 19.4°F-7.0°C 19.2°F-7.1°C 99% Calm Calm -- 29.50 in999.0 mb - 0.00 in0.0 mm 0.00 in0.0 mm
01:00 PM 20.1°F-6.6°C 19.9°F-6.7°C 99% Calm Calm 4.6 mph7.4 kmh 29.49 in998.6 mb - 0.00 in0.0 mm 0.00 in0.0 mm
02:00 PM 21.0°F-6.1°C 14.6°F-9.7°C 76% Calm Calm -- 29.49 in998.6 mb - 0.00 in0.0 mm 0.00 in0.0 mm
03:00 PM 21.6°F-5.8°C 10.6°F-11.9°C 62% Calm Calm -- 29.50 in999.0 mb - 0.00 in0.0 mm 0.00 in0.0 mm
04:00 PM 20.8°F-6.2°C 20.6°F-6.3°C 99% Calm Calm -- 29.52 in999.7 mb - 0.00 in0.0 mm 0.00 in0.0 mm
05:00 PM 19.8°F-6.8°C 10.3°F-12.1°C 66% Calm Calm -- 29.54 in1000.3 mb - 0.00 in0.0 mm 0.00 in0.0 mm
06:00 PM 18.3°F-7.6°C 18.1°F-7.7°C 99% Calm Calm -- 29.56 in1001.0 mb - 0.00 in0.0 mm 0.00 in0.0 mm
07:00 PM 17.8°F-7.9°C 17.6°F-8.0°C 99% Calm Calm -- 29.58 in1001.7 mb - 0.00 in0.0 mm 0.00 in0.0 mm
08:00 PM 16.5°F-8.6°C 12.8°F-10.7°C 85% Calm Calm -- 29.60 in1002.4 mb - 0.00 in0.0 mm 0.00 in0.0 mm
09:00 PM 16.0°F-8.9°C 15.8°F-9.0°C 99% Calm Calm -- 29.61 in1002.7 mb - 0.00 in0.0 mm 0.00 in0.0 mm
10:00 PM 15.8°F-9.0°C 15.6°F-9.1°C 99% Calm Calm -- 29.61 in1002.7 mb - 0.00 in0.0 mm 0.00 in0.0 mm
11:00 PM 16.2°F-8.8°C 16.0°F-8.9°C 99% Calm Calm -- 29.61 in1002.7 mb - 0.00 in0.0 mm 0.00 in0.0 mm